createdAt,value
2018-03-20T00:00:55.553Z,99.90
2018-03-20T00:03:30.700Z,99.90
2018-03-20T00:06:05.055Z,99.90
2018-03-20T00:08:40.397Z,99.90
2018-03-20T00:11:15.978Z,99.90
2018-03-20T00:13:51.015Z,99.90
2018-03-20T00:16:21.992Z,99.90
2018-03-20T00:18:57.209Z,99.90
2018-03-20T00:21:32.080Z,99.90
2018-03-20T00:24:07.296Z,99.90
2018-03-20T00:26:42.204Z,99.90
2018-03-20T00:29:17.509Z,99.90
2018-03-20T00:31:53.085Z,99.90
2018-03-20T00:34:28.566Z,99.90
2018-03-20T00:37:03.390Z,99.90
2018-03-20T00:39:38.744Z,99.90
2018-03-20T00:42:14.398Z,99.90
2018-03-20T00:44:51.180Z,99.90
2018-03-20T00:47:26.839Z,99.90
2018-03-20T00:50:02.111Z,99.90
2018-03-20T00:52:36.920Z,99.90
2018-03-20T00:55:12.114Z,99.90
2018-03-20T00:57:47.585Z,99.90
2018-03-20T01:00:19.713Z,99.90
2018-03-20T01:02:54.530Z,99.90
2018-03-20T01:05:29.986Z,99.90
2018-03-20T01:08:05.213Z,99.90
2018-03-20T01:10:40.452Z,99.90
2018-03-20T01:13:15.305Z,99.90
2018-03-20T01:15:46.468Z,99.90
2018-03-20T01:18:22.232Z,99.90
2018-03-20T01:20:57.795Z,99.90
2018-03-20T01:23:32.850Z,99.90
2018-03-20T01:26:08.098Z,99.90
2018-03-20T01:28:42.862Z,99.90
2018-03-20T01:31:14.633Z,99.90
2018-03-20T01:33:50.532Z,99.90
2018-03-20T01:36:25.721Z,99.90
2018-03-20T01:39:01.409Z,99.90
2018-03-20T01:41:36.509Z,99.90
2018-03-20T01:44:12.226Z,99.90
2018-03-20T01:46:47.346Z,99.90
2018-03-20T01:49:22.438Z,99.90
2018-03-20T01:51:58.244Z,99.90
2018-03-20T01:54:33.141Z,99.90
2018-03-20T01:57:08.421Z,99.90
2018-03-20T01:59:43.430Z,99.90
2018-03-20T02:02:18.620Z,99.90
2018-03-20T02:04:54.189Z,99.90
2018-03-20T02:07:29.457Z,99.90
2018-03-20T02:10:06.487Z,99.90
2018-03-20T02:12:43.603Z,99.90
2018-03-20T02:15:14.661Z,99.90
2018-03-20T02:20:44.425Z,99.90
2018-03-20T02:23:19.649Z,99.90
2018-03-20T02:25:55.151Z,99.90
2018-03-20T02:28:30.351Z,99.90
2018-03-20T02:31:01.269Z,99.90
2018-03-20T02:33:36.648Z,99.90
2018-03-20T02:36:12.244Z,99.90
2018-03-20T02:38:47.452Z,99.90
2018-03-20T02:41:22.495Z,99.90
2018-03-20T02:43:57.779Z,99.90
2018-03-20T02:46:39.267Z,99.90
2018-03-20T02:49:15.049Z,99.90
2018-03-20T02:51:51.371Z,99.90
2018-03-20T02:54:27.608Z,99.90
2018-03-20T02:57:03.351Z,99.90
2018-03-20T02:59:39.412Z,99.90
2018-03-20T03:02:15.233Z,99.90
2018-03-20T03:04:51.385Z,99.90
2018-03-20T03:07:27.449Z,99.90
2018-03-20T03:10:03.278Z,99.90
2018-03-20T03:12:38.099Z,99.90
2018-03-20T03:15:10.567Z,99.90
2018-03-20T03:17:45.853Z,99.90
2018-03-20T03:20:21.866Z,99.90
2018-03-20T03:22:56.813Z,99.90
2018-03-20T03:25:32.168Z,99.90
2018-03-20T03:28:08.846Z,99.90
2018-03-20T03:30:40.779Z,99.90
2018-03-20T03:33:15.743Z,99.90
2018-03-20T03:35:50.473Z,99.90
2018-03-20T03:38:26.251Z,99.90
2018-03-20T03:41:01.341Z,99.90
2018-03-20T03:43:36.181Z,99.90
2018-03-20T03:46:07.919Z,99.90
2018-03-20T03:48:42.549Z,99.90
2018-03-20T03:51:17.893Z,99.90
2018-03-20T03:53:52.911Z,99.90
2018-03-20T03:56:27.967Z,99.90
2018-03-20T03:59:02.889Z,99.90
2018-03-20T04:01:38.143Z,99.90
2018-03-20T04:04:13.700Z,99.90
2018-03-20T04:06:49.961Z,99.90
2018-03-20T04:09:25.639Z,99.90
2018-03-20T04:12:00.787Z,99.90
2018-03-20T04:14:35.503Z,99.90
2018-03-20T04:17:10.787Z,99.90
2018-03-20T04:19:45.999Z,99.90
2018-03-20T04:22:21.575Z,99.90
2018-03-20T04:24:57.125Z,99.90
2018-03-20T04:27:32.519Z,99.90
2018-03-20T04:30:07.873Z,99.90
2018-03-20T04:32:43.091Z,99.90
2018-03-20T04:35:17.882Z,99.90
2018-03-20T04:37:53.199Z,99.90
2018-03-20T04:40:28.235Z,99.90
2018-03-20T04:43:03.423Z,99.90
2018-03-20T04:45:34.414Z,99.90
2018-03-20T04:48:09.643Z,99.90
2018-03-20T04:50:44.668Z,99.90
2018-03-20T04:53:20.059Z,99.90
2018-03-20T04:55:55.782Z,99.90
2018-03-20T04:58:30.951Z,99.90
2018-03-20T05:01:01.920Z,99.90
2018-03-20T05:03:32.765Z,99.90
2018-03-20T05:06:03.093Z,99.90
2018-03-20T05:08:38.148Z,99.90
2018-03-20T05:11:09.265Z,99.90
2018-03-20T05:13:44.806Z,99.90
2018-03-20T05:16:15.697Z,99.90
2018-03-20T05:18:55.293Z,99.90
2018-03-20T05:21:31.971Z,99.90
2018-03-20T05:24:07.732Z,99.90
2018-03-20T05:26:38.635Z,99.90
2018-03-20T05:29:14.019Z,99.90
2018-03-20T05:31:49.349Z,99.90
2018-03-20T05:34:24.978Z,99.90
2018-03-20T05:37:00.304Z,99.90
2018-03-20T05:39:35.731Z,99.90
2018-03-20T05:42:10.629Z,99.90
2018-03-20T05:44:46.221Z,99.90
2018-03-20T05:47:34.669Z,99.90
2018-03-20T05:50:10.945Z,99.90
2018-03-20T05:52:46.119Z,99.90
2018-03-20T05:55:21.033Z,99.90
2018-03-20T05:57:56.048Z,99.90
2018-03-20T06:00:27.127Z,99.90
2018-03-20T06:03:02.711Z,99.90
2018-03-20T06:05:38.316Z,99.90
2018-03-20T06:08:13.625Z,99.90
2018-03-20T06:10:48.673Z,99.90
2018-03-20T06:13:23.615Z,99.90
2018-03-20T06:15:54.760Z,99.90
2018-03-20T06:18:29.985Z,99.90
2018-03-20T06:21:06.844Z,99.90
2018-03-20T06:23:42.028Z,99.90
2018-03-20T06:26:15.289Z,99.90
2018-03-20T06:28:50.226Z,99.90
2018-03-20T06:31:21.501Z,99.90
2018-03-20T06:33:56.566Z,99.90
2018-03-20T06:36:32.460Z,99.90
2018-03-20T06:39:06.691Z,99.90
2018-03-20T06:41:41.899Z,99.90
2018-03-20T06:44:16.978Z,99.90
2018-03-20T06:46:52.295Z,99.90
2018-03-20T06:49:27.247Z,99.90
2018-03-20T06:52:04.144Z,99.90
2018-03-20T06:54:40.303Z,96.30
2018-03-20T06:57:16.607Z,94.80
2018-03-20T06:59:51.671Z,94.70
2018-03-20T07:02:27.090Z,93.50
2018-03-20T07:05:02.124Z,92.50
2018-03-20T07:07:40.584Z,92.20
2018-03-20T07:10:15.639Z,91.10
2018-03-20T07:12:51.887Z,90.70
2018-03-20T07:15:23.940Z,90.10
2018-03-20T07:17:59.927Z,90.10
2018-03-20T07:20:36.033Z,91.30
2018-03-20T07:23:11.479Z,91.30
2018-03-20T07:25:46.534Z,93.20
2018-03-20T07:28:22.439Z,93.60
2018-03-20T07:30:54.499Z,94.40
2018-03-20T07:33:30.937Z,93.70
2018-03-20T07:36:07.619Z,93.30
2018-03-20T07:38:43.947Z,91.80
2018-03-20T07:41:19.246Z,91.80
2018-03-20T07:43:54.737Z,91.20
2018-03-20T07:46:25.884Z,90.10
2018-03-20T07:49:02.217Z,88.00
2018-03-20T07:51:37.521Z,84.00
2018-03-20T07:54:13.587Z,84.00
2018-03-20T07:56:48.601Z,83.80
2018-03-20T07:59:24.446Z,80.10
2018-03-20T08:01:59.249Z,80.00
2018-03-20T08:04:34.531Z,82.00
2018-03-20T08:07:10.493Z,79.60
2018-03-20T08:09:45.717Z,79.70
2018-03-20T08:12:21.981Z,74.90
2018-03-20T08:14:57.839Z,76.00
2018-03-20T08:17:34.125Z,75.00
2018-03-20T08:20:09.627Z,75.00
2018-03-20T08:22:44.243Z,75.90
2018-03-20T08:25:20.633Z,73.40
2018-03-20T08:27:56.421Z,72.80
2018-03-20T08:30:27.808Z,72.90
2018-03-20T08:33:03.037Z,74.10
2018-03-20T08:35:38.736Z,72.30
2018-03-20T08:38:14.365Z,69.70
2018-03-20T08:40:50.403Z,72.50
2018-03-20T08:43:25.681Z,72.50
2018-03-20T08:45:57.531Z,74.30
2018-03-20T08:48:33.352Z,74.10
2018-03-20T08:51:08.930Z,74.10
2018-03-20T08:53:44.073Z,72.80
2018-03-20T08:56:19.887Z,72.80
2018-03-20T08:58:55.028Z,72.70
2018-03-20T09:01:26.189Z,72.60
2018-03-20T09:04:01.785Z,72.50
2018-03-20T09:06:37.139Z,70.40
2018-03-20T09:09:12.596Z,71.50
2018-03-20T09:11:47.950Z,68.70
2018-03-20T09:14:24.031Z,67.40
2018-03-20T09:17:00.008Z,65.70
2018-03-20T09:19:36.403Z,65.60
2018-03-20T09:22:11.816Z,67.50
2018-03-20T09:24:47.520Z,66.20
2018-03-20T09:27:24.985Z,66.20
2018-03-20T09:30:00.553Z,65.60
2018-03-20T09:32:37.261Z,67.60
2018-03-20T09:35:13.946Z,62.60
2018-03-20T09:37:49.627Z,62.60
2018-03-20T09:40:25.165Z,59.50
2018-03-20T09:43:00.677Z,58.50
2018-03-20T09:45:32.535Z,58.20
2018-03-20T09:48:08.699Z,58.70
2018-03-20T09:50:43.937Z,59.60
2018-03-20T09:53:19.669Z,59.20
2018-03-20T09:55:54.575Z,59.20
2018-03-20T09:58:29.853Z,57.00
2018-03-20T10:01:01.635Z,59.30
2018-03-20T10:03:37.041Z,58.50
2018-03-20T10:06:11.793Z,57.80
2018-03-20T10:08:46.148Z,60.90
2018-03-20T10:11:21.321Z,60.60
2018-03-20T10:13:56.503Z,54.70
2018-03-20T10:16:31.209Z,54.90
2018-03-20T10:19:07.477Z,59.40
2018-03-20T10:21:43.399Z,58.20
2018-03-20T10:24:18.749Z,58.10
2018-03-20T10:26:52.765Z,58.70
2018-03-20T10:29:28.231Z,54.50
2018-03-20T10:32:04.978Z,58.50
2018-03-20T10:34:40.506Z,58.50
2018-03-20T10:37:15.691Z,56.50
2018-03-20T10:39:51.399Z,56.60
2018-03-20T10:42:26.201Z,58.00
2018-03-20T10:45:01.356Z,58.60
2018-03-20T10:47:36.459Z,58.00
2018-03-20T10:50:11.937Z,59.20
2018-03-20T10:52:47.006Z,58.50
2018-03-20T10:55:22.794Z,58.20
2018-03-20T10:57:57.798Z,60.10
2018-03-20T11:00:35.126Z,56.80
2018-03-20T11:03:10.713Z,56.90
2018-03-20T11:05:47.193Z,56.90
2018-03-20T11:08:22.907Z,58.30
2018-03-20T11:10:57.958Z,58.20
2018-03-20T11:13:32.887Z,58.60
2018-03-20T11:16:04.529Z,58.50
2018-03-20T11:18:39.901Z,58.90
2018-03-20T11:21:15.098Z,58.70
2018-03-20T11:23:50.415Z,60.30
2018-03-20T11:26:26.143Z,59.70
2018-03-20T11:29:02.595Z,62.10
2018-03-20T11:31:37.737Z,62.10
2018-03-20T11:34:12.570Z,60.30
2018-03-20T11:36:48.669Z,62.80
2018-03-20T11:39:23.393Z,62.90
2018-03-20T11:41:59.253Z,65.30
2018-03-20T11:44:34.314Z,63.00
2018-03-20T11:47:10.329Z,66.00
2018-03-20T11:49:45.309Z,65.10
2018-03-20T11:52:21.261Z,64.80
2018-03-20T11:54:56.336Z,70.20
2018-03-20T11:57:32.047Z,71.20
2018-03-20T12:00:08.098Z,73.30
2018-03-20T12:02:44.001Z,74.30
2018-03-20T12:05:19.861Z,76.30
2018-03-20T12:07:59.168Z,76.30
2018-03-20T12:10:33.729Z,76.30
2018-03-20T12:13:08.992Z,74.10
2018-03-20T12:15:40.209Z,77.20
2018-03-20T12:18:15.855Z,73.00
2018-03-20T12:20:51.017Z,74.40
2018-03-20T12:23:26.521Z,75.40
2018-03-20T12:26:02.347Z,79.30
2018-03-20T12:28:38.575Z,81.20
2018-03-20T12:31:09.585Z,81.00
2018-03-20T12:33:44.918Z,82.70
2018-03-20T12:36:19.834Z,87.70
2018-03-20T12:38:55.726Z,87.60
2018-03-20T12:41:30.375Z,87.50
2018-03-20T12:44:05.867Z,87.10
2018-03-20T12:46:41.722Z,88.00
2018-03-20T12:49:20.313Z,89.00
2018-03-20T12:51:55.232Z,88.90
2018-03-20T12:54:30.435Z,91.30
2018-03-20T12:57:05.826Z,93.10
2018-03-20T12:59:42.534Z,93.90
2018-03-20T13:02:18.297Z,95.20
2018-03-20T13:04:53.365Z,95.10
2018-03-20T13:07:28.245Z,94.90
2018-03-20T13:10:05.579Z,96.20
2018-03-20T13:12:40.513Z,96.20
2018-03-20T13:15:11.180Z,97.50
2018-03-20T13:17:47.659Z,99.40
2018-03-20T13:20:24.241Z,99.50
2018-03-20T13:22:58.289Z,99.90
2018-03-20T13:25:33.676Z,99.90
2018-03-20T13:28:09.634Z,99.90
2018-03-20T13:30:41.567Z,99.90
2018-03-20T13:33:16.528Z,99.90
2018-03-20T13:35:53.276Z,99.90
2018-03-20T13:38:28.072Z,99.90
2018-03-20T13:41:03.514Z,99.90
2018-03-20T13:43:38.888Z,99.90
2018-03-20T13:46:10.116Z,99.90
2018-03-20T13:48:45.651Z,99.90
2018-03-20T13:51:21.149Z,99.90
2018-03-20T13:53:56.680Z,99.90
2018-03-20T13:56:32.015Z,99.90
2018-03-20T13:59:07.692Z,99.90
2018-03-20T14:01:43.704Z,99.90
2018-03-20T14:04:18.768Z,99.90
2018-03-20T14:06:55.064Z,99.90
2018-03-20T14:09:29.910Z,99.90
2018-03-20T14:12:05.192Z,99.90
2018-03-20T14:14:41.305Z,99.90
2018-03-20T14:17:16.594Z,99.90
2018-03-20T14:19:51.912Z,99.90
2018-03-20T14:22:29.218Z,99.90
2018-03-20T14:25:03.809Z,99.90
2018-03-20T14:27:39.510Z,99.90
2018-03-20T14:30:11.094Z,99.90
2018-03-20T14:32:45.741Z,99.90
2018-03-20T14:35:21.339Z,99.90
2018-03-20T14:37:57.752Z,99.90
2018-03-20T14:40:32.704Z,99.90
2018-03-20T14:43:08.603Z,99.90
2018-03-20T14:45:39.686Z,99.90
2018-03-20T14:48:15.228Z,99.90
2018-03-20T14:50:50.402Z,99.90
2018-03-20T14:53:27.747Z,99.90
2018-03-20T14:56:02.622Z,99.90
2018-03-20T14:58:37.940Z,99.90
2018-03-20T15:01:09.667Z,99.90
2018-03-20T15:03:45.928Z,99.90
2018-03-20T15:06:21.157Z,99.90
2018-03-20T15:08:56.582Z,99.90
2018-03-20T15:11:31.524Z,99.90
2018-03-20T15:14:07.457Z,99.90
2018-03-20T15:16:42.671Z,99.90
2018-03-20T15:19:18.533Z,99.90
2018-03-20T15:21:53.375Z,99.90
2018-03-20T15:24:29.073Z,99.90
2018-03-20T15:27:04.285Z,99.90
2018-03-20T15:29:40.833Z,99.90
2018-03-20T15:32:16.040Z,99.90
2018-03-20T15:34:51.800Z,99.90
2018-03-20T15:37:26.621Z,99.90
2018-03-20T15:40:01.875Z,99.90
2018-03-20T15:42:37.010Z,99.90
2018-03-20T15:45:10.338Z,99.90
2018-03-20T15:47:45.455Z,99.90
2018-03-20T15:50:20.919Z,99.90
2018-03-20T15:52:56.634Z,99.90
2018-03-20T15:55:32.124Z,99.90
2018-03-20T15:58:06.310Z,99.90
2018-03-20T16:00:37.588Z,99.90
2018-03-20T16:03:12.713Z,99.90
2018-03-20T16:05:49.076Z,99.90
2018-03-20T16:08:25.148Z,99.90
2018-03-20T16:11:00.654Z,99.90
2018-03-20T16:13:34.045Z,99.90
2018-03-20T16:16:05.185Z,99.90
2018-03-20T16:18:40.166Z,99.90
2018-03-20T16:21:15.552Z,99.90
2018-03-20T16:23:50.345Z,99.90
2018-03-20T16:26:26.065Z,99.90
2018-03-20T16:29:01.648Z,99.90
2018-03-20T16:31:37.107Z,99.90
2018-03-20T16:34:13.812Z,99.90
2018-03-20T16:36:49.395Z,99.90
2018-03-20T16:39:28.063Z,99.90
2018-03-20T16:42:03.594Z,99.90
2018-03-20T16:44:38.894Z,99.90
2018-03-20T16:47:13.127Z,99.90
2018-03-20T16:49:48.237Z,99.90
2018-03-20T16:52:24.514Z,99.90
2018-03-20T16:55:00.006Z,99.90
2018-03-20T16:57:35.427Z,99.90
2018-03-20T17:00:10.095Z,99.90
2018-03-20T17:02:45.866Z,99.90
2018-03-20T17:05:21.832Z,99.90
2018-03-20T17:07:57.935Z,99.90
2018-03-20T17:10:32.885Z,99.90
2018-03-20T17:13:08.233Z,99.90
2018-03-20T17:15:39.340Z,99.90
2018-03-20T17:18:14.442Z,99.90
2018-03-20T17:20:50.209Z,99.90
2018-03-20T17:23:25.874Z,99.90
2018-03-20T17:26:00.581Z,99.90
2018-03-20T17:28:36.028Z,99.90
2018-03-20T17:31:06.984Z,99.90
2018-03-20T17:33:42.063Z,99.90
2018-03-20T17:36:19.987Z,99.90
2018-03-20T17:38:55.430Z,99.90
2018-03-20T17:41:31.336Z,99.90
2018-03-20T17:44:06.798Z,99.90
2018-03-20T17:46:41.448Z,99.90
2018-03-20T17:49:17.536Z,99.90
2018-03-20T17:51:52.543Z,99.90
2018-03-20T17:54:29.500Z,99.90
2018-03-20T17:57:04.825Z,99.90
2018-03-20T17:59:40.188Z,99.90
2018-03-20T18:02:15.321Z,99.90
2018-03-20T18:04:50.789Z,99.90
2018-03-20T18:07:26.069Z,99.90
2018-03-20T18:10:00.969Z,99.90
2018-03-20T18:12:35.873Z,99.90
2018-03-20T18:15:10.017Z,99.90
2018-03-20T18:17:44.948Z,99.90
2018-03-20T18:20:20.454Z,99.90
2018-03-20T18:22:55.591Z,99.90
2018-03-20T18:25:30.882Z,99.90
2018-03-20T18:28:05.533Z,99.90
2018-03-20T18:30:36.830Z,99.90
2018-03-20T18:33:12.716Z,99.90
2018-03-20T18:35:52.682Z,99.90
2018-03-20T18:38:29.974Z,99.90
2018-03-20T18:41:05.055Z,99.90
2018-03-20T18:43:40.903Z,99.90
2018-03-20T18:46:12.932Z,99.90
2018-03-20T18:48:47.974Z,99.90
2018-03-20T18:51:23.328Z,99.90
2018-03-20T18:53:58.001Z,99.90
2018-03-20T18:56:35.065Z,99.90
2018-03-20T18:59:09.965Z,99.90
2018-03-20T19:01:45.676Z,99.90
2018-03-20T19:04:21.019Z,99.90
2018-03-20T19:06:56.264Z,99.90
2018-03-20T19:09:32.048Z,99.90
2018-03-20T19:12:07.366Z,99.90
2018-03-20T19:14:42.561Z,99.90
2018-03-20T19:17:18.913Z,99.90
2018-03-20T19:19:54.738Z,99.90
2018-03-20T19:22:29.926Z,99.90
2018-03-20T19:25:05.144Z,99.90
2018-03-20T19:27:40.220Z,99.90
2018-03-20T19:30:10.626Z,99.90
2018-03-20T19:32:45.754Z,99.90
2018-03-20T19:35:20.323Z,99.90
2018-03-20T19:37:55.767Z,99.90
2018-03-20T19:40:30.951Z,99.90
2018-03-20T19:43:06.374Z,99.90
2018-03-20T19:45:38.184Z,99.90
2018-03-20T19:48:14.228Z,99.90
2018-03-20T19:50:49.352Z,99.90
2018-03-20T19:53:24.786Z,99.90
2018-03-20T19:56:00.055Z,99.90
2018-03-20T19:58:35.285Z,99.90
2018-03-20T20:01:06.130Z,99.90
2018-03-20T20:03:41.710Z,99.90
2018-03-20T20:06:16.661Z,99.90
2018-03-20T20:08:52.784Z,99.90
2018-03-20T20:11:27.693Z,99.90
2018-03-20T20:14:02.742Z,99.90
2018-03-20T20:16:37.610Z,99.90
2018-03-20T20:19:14.129Z,99.90
2018-03-20T20:21:49.254Z,99.90
2018-03-20T20:24:24.893Z,99.90
2018-03-20T20:26:59.640Z,99.90
2018-03-20T20:29:35.266Z,99.90
2018-03-20T20:32:11.020Z,99.90
2018-03-20T20:34:46.030Z,99.90
2018-03-20T20:37:22.090Z,99.90
2018-03-20T20:39:58.176Z,99.90
2018-03-20T20:42:33.065Z,99.90
2018-03-20T20:45:08.478Z,99.90
2018-03-20T20:47:43.758Z,99.90
2018-03-20T20:50:19.447Z,99.90
2018-03-20T20:52:54.774Z,99.90
2018-03-20T20:55:29.516Z,99.90
2018-03-20T20:58:04.308Z,99.90
2018-03-20T21:00:35.497Z,99.90
2018-03-20T21:03:10.435Z,99.90
2018-03-20T21:05:45.740Z,99.90
2018-03-20T21:08:21.519Z,99.90
2018-03-20T21:10:56.969Z,99.90
2018-03-20T21:13:31.891Z,99.90
2018-03-20T21:16:02.953Z,99.90
2018-03-20T21:18:38.687Z,99.90
2018-03-20T21:21:13.787Z,99.90
2018-03-20T21:23:48.714Z,99.90
2018-03-20T21:26:22.900Z,99.90
2018-03-20T21:28:58.063Z,99.90
2018-03-20T21:31:33.212Z,99.90
2018-03-20T21:34:07.800Z,99.90
2018-03-20T21:36:43.285Z,99.90
2018-03-20T21:39:19.206Z,99.90
2018-03-20T21:41:54.925Z,99.90
2018-03-20T21:44:32.240Z,99.90
2018-03-20T21:47:08.215Z,99.90
2018-03-20T21:49:43.909Z,99.90
2018-03-20T21:52:19.211Z,99.90
2018-03-20T21:54:54.607Z,99.90
2018-03-20T21:57:29.725Z,99.90
2018-03-20T22:00:04.133Z,99.90
2018-03-20T22:02:39.219Z,99.90
2018-03-20T22:05:14.238Z,99.90
2018-03-20T22:08:00.450Z,99.90
2018-03-20T22:10:35.259Z,99.90
2018-03-20T22:13:10.020Z,99.90
2018-03-20T22:15:41.700Z,99.90
2018-03-20T22:18:16.985Z,99.90
2018-03-20T22:20:51.799Z,99.90
2018-03-20T22:23:26.957Z,99.90
2018-03-20T22:26:01.680Z,99.90
2018-03-20T22:28:36.651Z,99.90
2018-03-20T22:31:07.662Z,99.90
2018-03-20T22:33:42.601Z,99.90
2018-03-20T22:36:17.150Z,99.90
2018-03-20T22:38:52.815Z,99.90
2018-03-20T22:41:27.581Z,99.90
2018-03-20T22:44:02.529Z,99.90
2018-03-20T22:46:37.335Z,99.90
2018-03-20T22:49:12.386Z,99.90
2018-03-20T22:51:47.050Z,99.90
2018-03-20T22:54:22.640Z,99.90
2018-03-20T22:56:57.390Z,99.90
2018-03-20T22:59:32.763Z,99.90
2018-03-20T23:02:07.474Z,99.90
2018-03-20T23:04:42.807Z,99.90
2018-03-20T23:07:17.328Z,99.90
2018-03-20T23:09:53.164Z,99.90
2018-03-20T23:12:27.627Z,99.90
2018-03-20T23:15:02.783Z,99.90
2018-03-20T23:17:37.376Z,99.90
2018-03-20T23:20:12.995Z,99.90
2018-03-20T23:22:47.594Z,99.90
2018-03-20T23:25:23.020Z,99.90
2018-03-20T23:27:57.286Z,99.90
2018-03-20T23:30:28.108Z,99.90
2018-03-20T23:33:03.026Z,99.90
2018-03-20T23:35:38.410Z,99.90
2018-03-20T23:38:13.752Z,99.90
2018-03-20T23:40:49.071Z,99.90
2018-03-20T23:43:23.818Z,99.90
2018-03-20T23:45:54.728Z,99.90
2018-03-20T23:48:29.277Z,99.90
2018-03-20T23:51:05.166Z,99.90
2018-03-20T23:53:40.036Z,99.90
2018-03-20T23:56:15.074Z,99.90
2018-03-20T23:58:49.779Z,99.90
